sensor_id;sensor_type;location;lat;lon;timestamp;pressure;altitude;pressure_sealevel;temperature;humidity
64139;BME280;50435;43.700;-79.318;2023-02-26T00:00:10;100765.38;;;-1.02;45.55
64139;BME280;50435;43.700;-79.318;2023-02-26T00:02:38;100757.00;;;-0.79;45.44
64139;BME280;50435;43.700;-79.318;2023-02-26T00:05:06;100756.24;;;-0.79;45.45
64139;BME280;50435;43.700;-79.318;2023-02-26T00:07:34;100760.05;;;-0.78;45.43
64139;BME280;50435;43.700;-79.318;2023-02-26T00:10:01;100755.97;;;-1.00;45.60
64139;BME280;50435;43.700;-79.318;2023-02-26T00:12:29;100750.43;;;-1.10;45.69
64139;BME280;50435;43.700;-79.318;2023-02-26T00:14:58;100747.08;;;-1.06;45.63
64139;BME280;50435;43.700;-79.318;2023-02-26T00:17:32;100737.95;;;-1.06;45.64
64139;BME280;50435;43.700;-79.318;2023-02-26T00:20:05;100735.43;;;-1.07;45.66
64139;BME280;50435;43.700;-79.318;2023-02-26T00:22:34;100741.09;;;-0.88;45.77
64139;BME280;50435;43.700;-79.318;2023-02-26T00:25:02;100740.51;;;-1.13;45.69
64139;BME280;50435;43.700;-79.318;2023-02-26T00:27:29;100724.03;;;-1.04;45.60
64139;BME280;50435;43.700;-79.318;2023-02-26T00:29:57;100724.32;;;-0.87;45.72
64139;BME280;50435;43.700;-79.318;2023-02-26T00:32:25;100720.24;;;-0.86;45.83
64139;BME280;50435;43.700;-79.318;2023-02-26T00:34:53;100723.59;;;-1.14;45.85
64139;BME280;50435;43.700;-79.318;2023-02-26T00:37:29;100724.61;;;-0.91;45.89
64139;BME280;50435;43.700;-79.318;2023-02-26T00:40:07;100722.20;;;-1.14;45.93
64139;BME280;50435;43.700;-79.318;2023-02-26T00:42:38;100720.37;;;-0.65;45.85
64139;BME280;50435;43.700;-79.318;2023-02-26T00:45:07;100721.28;;;-1.13;45.88
64139;BME280;50435;43.700;-79.318;2023-02-26T00:47:43;100712.15;;;-1.13;45.89
64139;BME280;50435;43.700;-79.318;2023-02-26T00:50:17;100705.89;;;-0.86;45.89
64139;BME280;50435;43.700;-79.318;2023-02-26T00:52:53;100700.75;;;-1.11;45.89
64139;BME280;50435;43.700;-79.318;2023-02-26T00:55:26;100691.34;;;-1.09;45.86
64139;BME280;50435;43.700;-79.318;2023-02-26T00:57:54;100695.06;;;-1.12;45.90
64139;BME280;50435;43.700;-79.318;2023-02-26T01:00:21;100693.26;;;-0.85;45.81
64139;BME280;50435;43.700;-79.318;2023-02-26T01:02:49;100692.63;;;-1.09;45.86
64139;BME280;50435;43.700;-79.318;2023-02-26T01:05:17;100686.49;;;-0.85;45.84
64139;BME280;50435;43.700;-79.318;2023-02-26T01:07:53;100681.08;;;-0.87;45.84
64139;BME280;50435;43.700;-79.318;2023-02-26T01:10:26;100678.33;;;-0.85;45.83
64139;BME280;50435;43.700;-79.318;2023-02-26T01:12:55;100672.86;;;-0.86;45.93
64139;BME280;50435;43.700;-79.318;2023-02-26T01:15:23;100664.55;;;-1.12;45.99
64139;BME280;50435;43.700;-79.318;2023-02-26T01:17:56;100661.47;;;-1.09;45.96
64139;BME280;50435;43.700;-79.318;2023-02-26T01:20:32;100655.51;;;-0.87;45.96
64139;BME280;50435;43.700;-79.318;2023-02-26T01:23:06;100657.53;;;-1.06;45.87
64139;BME280;50435;43.700;-79.318;2023-02-26T01:25:40;100657.61;;;-0.88;45.98
64139;BME280;50435;43.700;-79.318;2023-02-26T01:28:09;100656.75;;;-1.10;45.97
64139;BME280;50435;43.700;-79.318;2023-02-26T01:30:37;100653.00;;;-1.11;46.06
64139;BME280;50435;43.700;-79.318;2023-02-26T01:33:09;100653.17;;;-1.04;45.98
64139;BME280;50435;43.700;-79.318;2023-02-26T01:35:44;100652.05;;;-1.06;45.97
64139;BME280;50435;43.700;-79.318;2023-02-26T01:38:19;100646.87;;;-0.88;46.03
64139;BME280;50435;43.700;-79.318;2023-02-26T01:41:06;100644.84;;;-0.90;46.10
64139;BME280;50435;43.700;-79.318;2023-02-26T01:43:40;100635.70;;;-0.89;46.07
64139;BME280;50435;43.700;-79.318;2023-02-26T01:46:17;100631.14;;;-1.13;46.17
64139;BME280;50435;43.700;-79.318;2023-02-26T01:48:50;100627.97;;;-0.90;46.14
64139;BME280;50435;43.700;-79.318;2023-02-26T01:51:39;100624.79;;;-1.10;46.14
64139;BME280;50435;43.700;-79.318;2023-02-26T01:54:06;100616.76;;;-1.15;46.25
64139;BME280;50435;43.700;-79.318;2023-02-26T01:56:34;100608.53;;;-0.82;46.13
64139;BME280;50435;43.700;-79.318;2023-02-26T01:59:03;100599.20;;;-1.08;46.17
64139;BME280;50435;43.700;-79.318;2023-02-26T02:01:31;100589.75;;;-1.15;46.25
64139;BME280;50435;43.700;-79.318;2023-02-26T02:03:59;100579.62;;;-0.62;46.21
64139;BME280;50435;43.700;-79.318;2023-02-26T02:06:27;100573.92;;;-1.09;46.15
64139;BME280;50435;43.700;-79.318;2023-02-26T02:08:56;100574.75;;;-0.84;46.08
64139;BME280;50435;43.700;-79.318;2023-02-26T02:11:23;100576.37;;;-0.85;46.10
64139;BME280;50435;43.700;-79.318;2023-02-26T02:14:01;100576.22;;;-1.09;46.14
64139;BME280;50435;43.700;-79.318;2023-02-26T02:16:38;100571.24;;;-1.04;46.02
64139;BME280;50435;43.700;-79.318;2023-02-26T02:19:28;100566.81;;;-0.59;46.11
64139;BME280;50435;43.700;-79.318;2023-02-26T02:22:15;100563.83;;;-1.03;46.05
64139;BME280;50435;43.700;-79.318;2023-02-26T02:24:58;100561.05;;;-1.06;46.12
64139;BME280;50435;43.700;-79.318;2023-02-26T02:27:36;100560.77;;;-1.03;46.07
64139;BME280;50435;43.700;-79.318;2023-02-26T02:30:12;100551.80;;;-0.55;46.11
64139;BME280;50435;43.700;-79.318;2023-02-26T02:32:49;100548.93;;;-0.79;46.08
64139;BME280;50435;43.700;-79.318;2023-02-26T02:35:21;100545.44;;;-0.79;46.10
64139;BME280;50435;43.700;-79.318;2023-02-26T02:37:54;100542.12;;;-1.02;46.13
64139;BME280;50435;43.700;-79.318;2023-02-26T02:40:26;100531.64;;;-1.01;46.10
64139;BME280;50435;43.700;-79.318;2023-02-26T02:43:00;100533.91;;;-0.97;46.11
64139;BME280;50435;43.700;-79.318;2023-02-26T02:45:33;100536.26;;;-0.95;46.02
64139;BME280;50435;43.700;-79.318;2023-02-26T02:48:08;100530.43;;;-0.85;45.86
64139;BME280;50435;43.700;-79.318;2023-02-26T02:50:40;100528.77;;;-0.69;45.94
64139;BME280;50435;43.700;-79.318;2023-02-26T02:53:14;100517.96;;;-0.91;45.95
64139;BME280;50435;43.700;-79.318;2023-02-26T02:55:46;100517.49;;;-0.99;46.10
64139;BME280;50435;43.700;-79.318;2023-02-26T02:58:18;100515.58;;;-0.88;45.92
64139;BME280;50435;43.700;-79.318;2023-02-26T03:00:49;100510.91;;;-0.67;45.93
64139;BME280;50435;43.700;-79.318;2023-02-26T03:03:23;100506.55;;;-0.89;45.94
64139;BME280;50435;43.700;-79.318;2023-02-26T03:05:51;100495.11;;;-1.11;45.91
64139;BME280;50435;43.700;-79.318;2023-02-26T03:08:21;100487.06;;;-0.90;45.95
64139;BME280;50435;43.700;-79.318;2023-02-26T03:10:50;100479.30;;;-0.93;46.02
64139;BME280;50435;43.700;-79.318;2023-02-26T03:13:20;100471.03;;;-0.72;46.10
64139;BME280;50435;43.700;-79.318;2023-02-26T03:15:57;100458.75;;;-0.96;46.13
64139;BME280;50435;43.700;-79.318;2023-02-26T03:18:44;100446.94;;;-1.34;45.94
64139;BME280;50435;43.700;-79.318;2023-02-26T03:21:19;100447.55;;;-0.88;45.99
64139;BME280;50435;43.700;-79.318;2023-02-26T03:23:53;100442.36;;;-0.55;45.83
64139;BME280;50435;43.700;-79.318;2023-02-26T03:26:29;100437.50;;;-1.04;45.89
64139;BME280;50435;43.700;-79.318;2023-02-26T03:29:04;100427.27;;;-0.68;46.07
64139;BME280;50435;43.700;-79.318;2023-02-26T03:31:37;100413.44;;;-0.89;46.03
64139;BME280;50435;43.700;-79.318;2023-02-26T03:34:12;100408.45;;;-0.67;46.03
64139;BME280;50435;43.700;-79.318;2023-02-26T03:36:45;100406.49;;;-0.81;45.94
64139;BME280;50435;43.700;-79.318;2023-02-26T03:39:19;100395.95;;;-0.80;45.85
64139;BME280;50435;43.700;-79.318;2023-02-26T03:41:54;100388.62;;;-0.82;45.91
64139;BME280;50435;43.700;-79.318;2023-02-26T03:44:27;100375.80;;;-0.80;45.78
64139;BME280;50435;43.700;-79.318;2023-02-26T03:47:06;100364.87;;;-0.82;45.81
64139;BME280;50435;43.700;-79.318;2023-02-26T03:49:38;100355.92;;;-0.63;45.84
64139;BME280;50435;43.700;-79.318;2023-02-26T03:52:08;100361.95;;;-0.80;45.73
64139;BME280;50435;43.700;-79.318;2023-02-26T03:54:40;100368.41;;;-0.82;45.82
64139;BME280;50435;43.700;-79.318;2023-02-26T03:57:08;100374.24;;;-0.85;45.91
64139;BME280;50435;43.700;-79.318;2023-02-26T03:59:36;100373.84;;;-0.82;45.83
64139;BME280;50435;43.700;-79.318;2023-02-26T04:02:07;100369.29;;;-0.84;45.90
64139;BME280;50435;43.700;-79.318;2023-02-26T04:04:41;100361.47;;;-0.81;45.87
64139;BME280;50435;43.700;-79.318;2023-02-26T04:07:12;100354.29;;;-0.78;45.79
64139;BME280;50435;43.700;-79.318;2023-02-26T04:09:42;100342.60;;;-0.80;45.73
64139;BME280;50435;43.700;-79.318;2023-02-26T04:12:10;100335.79;;;-0.81;45.76
64139;BME280;50435;43.700;-79.318;2023-02-26T04:14:37;100331.58;;;-0.63;45.89
64139;BME280;50435;43.700;-79.318;2023-02-26T04:17:05;100328.60;;;-0.82;45.86
64139;BME280;50435;43.700;-79.318;2023-02-26T04:19:33;100322.05;;;-0.77;45.75
64139;BME280;50435;43.700;-79.318;2023-02-26T04:22:00;100320.05;;;-0.76;45.72
64139;BME280;50435;43.700;-79.318;2023-02-26T04:24:27;100309.65;;;-0.84;45.90
64139;BME280;50435;43.700;-79.318;2023-02-26T04:26:55;100301.14;;;-0.77;45.81
64139;BME280;50435;43.700;-79.318;2023-02-26T04:29:22;100297.34;;;-0.83;45.96
64139;BME280;50435;43.700;-79.318;2023-02-26T04:31:50;100299.56;;;-0.80;45.93
64139;BME280;50435;43.700;-79.318;2023-02-26T04:34:17;100298.41;;;-0.66;45.99
64139;BME280;50435;43.700;-79.318;2023-02-26T04:36:46;100285.92;;;-0.58;45.96
64139;BME280;50435;43.700;-79.318;2023-02-26T04:39:13;100274.41;;;-0.80;45.95
64139;BME280;50435;43.700;-79.318;2023-02-26T04:41:41;100272.80;;;-0.57;45.93
64139;BME280;50435;43.700;-79.318;2023-02-26T04:44:09;100261.30;;;-0.57;45.96
64139;BME280;50435;43.700;-79.318;2023-02-26T04:46:37;100254.13;;;-0.82;45.99
64139;BME280;50435;43.700;-79.318;2023-02-26T04:49:05;100252.74;;;-0.78;45.94
64139;BME280;50435;43.700;-79.318;2023-02-26T04:51:33;100251.92;;;-0.59;46.05
64139;BME280;50435;43.700;-79.318;2023-02-26T04:54:00;100243.17;;;-0.78;45.97
64139;BME280;50435;43.700;-79.318;2023-02-26T04:56:28;100241.78;;;-0.51;45.85
64139;BME280;50435;43.700;-79.318;2023-02-26T04:58:55;100231.05;;;-0.52;45.86
64139;BME280;50435;43.700;-79.318;2023-02-26T05:01:23;100229.09;;;-0.77;45.97
64139;BME280;50435;43.700;-79.318;2023-02-26T05:03:51;100213.51;;;-0.68;45.68
64139;BME280;50435;43.700;-79.318;2023-02-26T05:06:18;100204.22;;;-0.68;45.72
64139;BME280;50435;43.700;-79.318;2023-02-26T05:08:45;100196.17;;;-0.47;45.77
64139;BME280;50435;43.700;-79.318;2023-02-26T05:11:13;100196.30;;;-0.71;45.89
64139;BME280;50435;43.700;-79.318;2023-02-26T05:13:41;100187.84;;;-0.69;45.85
64139;BME280;50435;43.700;-79.318;2023-02-26T05:16:08;100196.92;;;-0.74;45.99
64139;BME280;50435;43.700;-79.318;2023-02-26T05:18:35;100190.39;;;-0.67;45.90
64139;BME280;50435;43.700;-79.318;2023-02-26T05:21:04;100184.13;;;-0.69;46.05
64139;BME280;50435;43.700;-79.318;2023-02-26T05:23:33;100174.70;;;-0.40;45.84
64139;BME280;50435;43.700;-79.318;2023-02-26T05:26:00;100197.33;;;-0.68;45.92
64139;BME280;50435;43.700;-79.318;2023-02-26T05:28:29;100210.74;;;-0.66;46.03
64139;BME280;50435;43.700;-79.318;2023-02-26T05:30:56;100208.92;;;-0.62;45.85
64139;BME280;50435;43.700;-79.318;2023-02-26T05:33:25;100198.61;;;-0.35;45.85
64139;BME280;50435;43.700;-79.318;2023-02-26T05:35:52;100200.12;;;-0.54;45.75
64139;BME280;50435;43.700;-79.318;2023-02-26T05:38:20;100190.87;;;-0.53;45.69
64139;BME280;50435;43.700;-79.318;2023-02-26T05:40:48;100183.45;;;-0.53;45.78
64139;BME280;50435;43.700;-79.318;2023-02-26T05:43:15;100173.27;;;-0.47;45.65
64139;BME280;50435;43.700;-79.318;2023-02-26T05:45:43;100156.18;;;-0.25;45.67
64139;BME280;50435;43.700;-79.318;2023-02-26T05:48:10;100154.02;;;-0.51;45.70
64139;BME280;50435;43.700;-79.318;2023-02-26T05:50:37;100147.73;;;-0.42;45.59
64139;BME280;50435;43.700;-79.318;2023-02-26T05:53:05;100149.76;;;-0.45;45.65
64139;BME280;50435;43.700;-79.318;2023-02-26T05:55:32;100134.46;;;-0.21;45.68
64139;BME280;50435;43.700;-79.318;2023-02-26T05:57:59;100120.20;;;-0.49;45.77
64139;BME280;50435;43.700;-79.318;2023-02-26T06:00:27;100123.88;;;-0.39;45.60
64139;BME280;50435;43.700;-79.318;2023-02-26T06:02:54;100117.84;;;-0.20;45.63
64139;BME280;50435;43.700;-79.318;2023-02-26T06:05:21;100116.14;;;-0.51;45.86
64139;BME280;50435;43.700;-79.318;2023-02-26T06:07:49;100132.65;;;-0.40;45.69
64139;BME280;50435;43.700;-79.318;2023-02-26T06:10:17;100134.24;;;-0.42;45.76
64139;BME280;50435;43.700;-79.318;2023-02-26T06:12:45;100129.86;;;-0.44;45.84
64139;BME280;50435;43.700;-79.318;2023-02-26T06:15:12;100123.56;;;-0.65;45.81
64139;BME280;50435;43.700;-79.318;2023-02-26T06:17:39;100119.62;;;-0.43;45.78
64139;BME280;50435;43.700;-79.318;2023-02-26T06:20:08;100104.59;;;-0.44;45.85
64139;BME280;50435;43.700;-79.318;2023-02-26T06:22:36;100098.61;;;-0.39;45.79
64139;BME280;50435;43.700;-79.318;2023-02-26T06:25:04;100097.44;;;-0.43;45.89
64139;BME280;50435;43.700;-79.318;2023-02-26T06:27:32;100097.27;;;-0.13;45.72
64139;BME280;50435;43.700;-79.318;2023-02-26T06:29:59;100084.31;;;-0.09;45.68
64139;BME280;50435;43.700;-79.318;2023-02-26T06:32:26;100075.30;;;-0.14;45.83
64139;BME280;50435;43.700;-79.318;2023-02-26T06:34:53;100069.76;;;-0.28;45.65
64139;BME280;50435;43.700;-79.318;2023-02-26T06:37:21;100073.37;;;-0.29;45.71
64139;BME280;50435;43.700;-79.318;2023-02-26T06:39:48;100070.84;;;-0.29;45.67
64139;BME280;50435;43.700;-79.318;2023-02-26T06:42:16;100058.46;;;-0.20;45.51
64139;BME280;50435;43.700;-79.318;2023-02-26T06:44:43;100042.28;;;0.02;45.49
64139;BME280;50435;43.700;-79.318;2023-02-26T06:47:11;100041.44;;;-0.26;45.59
64139;BME280;50435;43.700;-79.318;2023-02-26T06:49:38;100047.85;;;-0.30;45.79
64139;BME280;50435;43.700;-79.318;2023-02-26T06:52:05;100043.29;;;-0.23;45.69
64139;BME280;50435;43.700;-79.318;2023-02-26T06:54:33;100043.27;;;-0.14;45.66
64139;BME280;50435;43.700;-79.318;2023-02-26T06:57:00;100038.99;;;-0.45;45.86
64139;BME280;50435;43.700;-79.318;2023-02-26T06:59:28;100036.15;;;-0.27;45.97
64139;BME280;50435;43.700;-79.318;2023-02-26T07:01:55;100022.22;;;-0.23;45.94
64139;BME280;50435;43.700;-79.318;2023-02-26T07:04:22;100007.03;;;-0.11;45.72
64139;BME280;50435;43.700;-79.318;2023-02-26T07:06:50;100011.73;;;-0.12;45.85
64139;BME280;50435;43.700;-79.318;2023-02-26T07:09:17;100001.65;;;-0.14;45.79
64139;BME280;50435;43.700;-79.318;2023-02-26T07:11:45;99997.68;;;-0.41;45.98
64139;BME280;50435;43.700;-79.318;2023-02-26T07:14:13;99989.89;;;-0.11;45.92
64139;BME280;50435;43.700;-79.318;2023-02-26T07:16:41;99984.25;;;-0.12;45.90
64139;BME280;50435;43.700;-79.318;2023-02-26T07:19:08;99984.14;;;-0.30;45.86
64139;BME280;50435;43.700;-79.318;2023-02-26T07:21:35;99979.36;;;-0.15;46.12
64139;BME280;50435;43.700;-79.318;2023-02-26T07:24:03;99969.65;;;-0.13;46.08
64139;BME280;50435;43.700;-79.318;2023-02-26T07:26:31;99969.93;;;-0.21;46.19
64139;BME280;50435;43.700;-79.318;2023-02-26T07:28:58;99964.09;;;-0.19;46.17
64139;BME280;50435;43.700;-79.318;2023-02-26T07:31:25;99962.35;;;-0.14;46.21
64139;BME280;50435;43.700;-79.318;2023-02-26T07:33:53;99966.68;;;-0.12;46.15
64139;BME280;50435;43.700;-79.318;2023-02-26T07:36:20;99961.99;;;-0.12;46.21
64139;BME280;50435;43.700;-79.318;2023-02-26T07:38:47;99967.16;;;-0.13;46.21
64139;BME280;50435;43.700;-79.318;2023-02-26T07:41:14;99970.27;;;-0.15;46.31
64139;BME280;50435;43.700;-79.318;2023-02-26T07:43:43;99963.19;;;-0.28;46.14
64139;BME280;50435;43.700;-79.318;2023-02-26T07:46:10;99951.02;;;-0.08;46.18
64139;BME280;50435;43.700;-79.318;2023-02-26T07:48:38;99932.27;;;-0.03;46.06
64139;BME280;50435;43.700;-79.318;2023-02-26T07:51:05;99924.70;;;-0.06;46.19
64139;BME280;50435;43.700;-79.318;2023-02-26T07:53:33;99908.49;;;-0.27;46.23
64139;BME280;50435;43.700;-79.318;2023-02-26T07:56:01;99895.69;;;-0.08;46.29
64139;BME280;50435;43.700;-79.318;2023-02-26T07:58:29;99889.63;;;-0.03;46.22
64139;BME280;50435;43.700;-79.318;2023-02-26T08:00:57;99872.12;;;0.03;46.17
64139;BME280;50435;43.700;-79.318;2023-02-26T08:03:25;99872.78;;;-0.02;46.25
64139;BME280;50435;43.700;-79.318;2023-02-26T08:05:52;99863.34;;;0.03;46.18
64139;BME280;50435;43.700;-79.318;2023-02-26T08:08:20;99869.40;;;-0.18;46.20
64139;BME280;50435;43.700;-79.318;2023-02-26T08:10:47;99861.65;;;0.02;46.28
64139;BME280;50435;43.700;-79.318;2023-02-26T08:13:14;99851.32;;;-0.20;46.32
64139;BME280;50435;43.700;-79.318;2023-02-26T08:15:41;99838.17;;;0.10;46.18
64139;BME280;50435;43.700;-79.318;2023-02-26T08:18:09;99833.39;;;0.10;46.23
64139;BME280;50435;43.700;-79.318;2023-02-26T08:20:37;99821.40;;;-0.10;46.20
64139;BME280;50435;43.700;-79.318;2023-02-26T08:23:04;99823.17;;;-0.09;46.24
64139;BME280;50435;43.700;-79.318;2023-02-26T08:25:32;99809.57;;;0.15;46.18
64139;BME280;50435;43.700;-79.318;2023-02-26T08:27:59;99809.33;;;0.17;46.17
64139;BME280;50435;43.700;-79.318;2023-02-26T08:30:26;99803.91;;;-0.03;46.15
64139;BME280;50435;43.700;-79.318;2023-02-26T08:32:53;99801.08;;;0.09;46.42
64139;BME280;50435;43.700;-79.318;2023-02-26T08:35:21;99777.71;;;-0.08;46.40
64139;BME280;50435;43.700;-79.318;2023-02-26T08:37:48;99784.24;;;0.10;46.49
64139;BME280;50435;43.700;-79.318;2023-02-26T08:40:16;99783.68;;;0.14;46.51
64139;BME280;50435;43.700;-79.318;2023-02-26T08:42:43;99774.75;;;0.05;46.69
64139;BME280;50435;43.700;-79.318;2023-02-26T08:45:12;99770.78;;;-0.39;46.63
64139;BME280;50435;43.700;-79.318;2023-02-26T08:47:39;99763.10;;;-0.07;46.58
64139;BME280;50435;43.700;-79.318;2023-02-26T08:50:07;99750.35;;;0.10;46.74
64139;BME280;50435;43.700;-79.318;2023-02-26T08:52:35;99735.64;;;0.14;46.73
64139;BME280;50435;43.700;-79.318;2023-02-26T08:55:03;99729.98;;;0.18;46.70
64139;BME280;50435;43.700;-79.318;2023-02-26T08:57:31;99730.77;;;0.25;46.60
64139;BME280;50435;43.700;-79.318;2023-02-26T08:59:58;99732.43;;;0.14;46.90
64139;BME280;50435;43.700;-79.318;2023-02-26T09:02:26;99723.35;;;0.19;46.83
64139;BME280;50435;43.700;-79.318;2023-02-26T09:04:53;99721.73;;;-0.06;46.89
64139;BME280;50435;43.700;-79.318;2023-02-26T09:07:20;99722.64;;;0.03;46.81
64139;BME280;50435;43.700;-79.318;2023-02-26T09:09:47;99728.23;;;0.22;46.78
64139;BME280;50435;43.700;-79.318;2023-02-26T09:12:15;99723.85;;;0.27;46.82
64139;BME280;50435;43.700;-79.318;2023-02-26T09:14:42;99709.13;;;-0.26;46.92
64139;BME280;50435;43.700;-79.318;2023-02-26T09:17:10;99704.50;;;0.04;46.89
64139;BME280;50435;43.700;-79.318;2023-02-26T09:19:37;99694.03;;;0.19;46.97
64139;BME280;50435;43.700;-79.318;2023-02-26T09:22:05;99694.46;;;-0.29;46.96
64139;BME280;50435;43.700;-79.318;2023-02-26T09:24:34;99687.97;;;-0.01;46.96
64139;BME280;50435;43.700;-79.318;2023-02-26T09:27:01;99699.66;;;-0.23;46.92
64139;BME280;50435;43.700;-79.318;2023-02-26T09:29:29;99701.86;;;-0.23;46.85
64139;BME280;50435;43.700;-79.318;2023-02-26T09:31:56;99701.28;;;0.06;46.82
64139;BME280;50435;43.700;-79.318;2023-02-26T09:34:24;99701.83;;;0.39;46.72
64139;BME280;50435;43.700;-79.318;2023-02-26T09:36:51;99696.13;;;-0.08;46.66
64139;BME280;50435;43.700;-79.318;2023-02-26T09:39:19;99693.30;;;0.10;46.84
64139;BME280;50435;43.700;-79.318;2023-02-26T09:41:48;99696.99;;;0.19;46.63
64139;BME280;50435;43.700;-79.318;2023-02-26T09:44:19;99694.19;;;-0.13;46.71
64139;BME280;50435;43.700;-79.318;2023-02-26T09:46:54;99702.68;;;-0.23;46.98
64139;BME280;50435;43.700;-79.318;2023-02-26T09:49:33;99698.85;;;-0.23;47.04
64139;BME280;50435;43.700;-79.318;2023-02-26T09:52:07;99687.73;;;-0.13;46.87
64139;BME280;50435;43.700;-79.318;2023-02-26T09:54:46;99698.13;;;0.30;47.00
64139;BME280;50435;43.700;-79.318;2023-02-26T09:57:25;99708.14;;;0.16;46.84
64139;BME280;50435;43.700;-79.318;2023-02-26T09:59:54;99712.43;;;0.14;46.95
64139;BME280;50435;43.700;-79.318;2023-02-26T10:02:28;99709.79;;;0.36;46.95
64139;BME280;50435;43.700;-79.318;2023-02-26T10:05:03;99702.09;;;0.09;46.99
64139;BME280;50435;43.700;-79.318;2023-02-26T10:07:41;99703.48;;;-0.18;47.04
64139;BME280;50435;43.700;-79.318;2023-02-26T10:10:19;99699.40;;;0.20;46.92
64139;BME280;50435;43.700;-79.318;2023-02-26T10:12:51;99697.45;;;-0.01;46.80
64139;BME280;50435;43.700;-79.318;2023-02-26T10:15:21;99700.52;;;-0.04;46.93
64139;BME280;50435;43.700;-79.318;2023-02-26T10:17:59;99689.61;;;0.11;47.07
64139;BME280;50435;43.700;-79.318;2023-02-26T10:20:53;99687.58;;;0.44;46.87
64139;BME280;50435;43.700;-79.318;2023-02-26T10:23:24;99694.89;;;0.41;46.96
64139;BME280;50435;43.700;-79.318;2023-02-26T10:26:06;99689.75;;;0.46;46.87
64139;BME280;50435;43.700;-79.318;2023-02-26T10:28:47;99680.22;;;0.43;46.90
64139;BME280;50435;43.700;-79.318;2023-02-26T10:31:23;99676.07;;;0.19;46.94
64139;BME280;50435;43.700;-79.318;2023-02-26T10:34:01;99670.90;;;0.58;46.71
64139;BME280;50435;43.700;-79.318;2023-02-26T10:36:39;99666.63;;;0.56;46.67
64139;BME280;50435;43.700;-79.318;2023-02-26T10:39:28;99662.70;;;-0.04;46.86
64139;BME280;50435;43.700;-79.318;2023-02-26T10:42:00;99665.64;;;0.43;46.98
64139;BME280;50435;43.700;-79.318;2023-02-26T10:44:33;99663.46;;;0.53;46.80
64139;BME280;50435;43.700;-79.318;2023-02-26T10:47:07;99666.51;;;0.02;46.81
64139;BME280;50435;43.700;-79.318;2023-02-26T10:49:47;99668.37;;;0.03;46.79
64139;BME280;50435;43.700;-79.318;2023-02-26T10:52:20;99673.94;;;0.07;46.73
64139;BME280;50435;43.700;-79.318;2023-02-26T10:55:00;99677.43;;;0.05;46.71
64139;BME280;50435;43.700;-79.318;2023-02-26T10:57:31;99675.35;;;0.07;46.71
64139;BME280;50435;43.700;-79.318;2023-02-26T11:00:03;99668.54;;;0.08;46.66
64139;BME280;50435;43.700;-79.318;2023-02-26T11:02:35;99667.14;;;0.08;46.98
64139;BME280;50435;43.700;-79.318;2023-02-26T11:05:05;99660.67;;;0.12;46.56
64139;BME280;50435;43.700;-79.318;2023-02-26T11:07:35;99660.93;;;0.12;46.61
64139;BME280;50435;43.700;-79.318;2023-02-26T11:10:13;99658.44;;;0.21;46.48
64139;BME280;50435;43.700;-79.318;2023-02-26T11:12:42;99645.79;;;0.08;46.71
64139;BME280;50435;43.700;-79.318;2023-02-26T11:15:14;99645.27;;;0.12;46.54
64139;BME280;50435;43.700;-79.318;2023-02-26T11:17:41;99650.00;;;0.36;46.57
64139;BME280;50435;43.700;-79.318;2023-02-26T11:20:17;99654.01;;;0.16;46.37
64139;BME280;50435;43.700;-79.318;2023-02-26T11:22:47;99659.62;;;0.16;46.57
64139;BME280;50435;43.700;-79.318;2023-02-26T11:25:18;99655.13;;;0.43;46.49
64139;BME280;50435;43.700;-79.318;2023-02-26T11:27:52;99660.27;;;0.18;46.48
64139;BME280;50435;43.700;-79.318;2023-02-26T11:30:24;99658.63;;;0.11;46.70
64139;BME280;50435;43.700;-79.318;2023-02-26T11:32:53;99660.05;;;0.16;46.52
64139;BME280;50435;43.700;-79.318;2023-02-26T11:35:25;99666.97;;;0.19;46.43
64139;BME280;50435;43.700;-79.318;2023-02-26T11:37:57;99662.97;;;0.17;46.48
64139;BME280;50435;43.700;-79.318;2023-02-26T11:40:32;99659.01;;;0.14;46.49
64139;BME280;50435;43.700;-79.318;2023-02-26T11:43:07;99661.46;;;0.21;46.42
64139;BME280;50435;43.700;-79.318;2023-02-26T11:45:36;99656.21;;;0.19;46.48
64139;BME280;50435;43.700;-79.318;2023-02-26T11:48:09;99659.97;;;0.14;46.53
64139;BME280;50435;43.700;-79.318;2023-02-26T11:50:43;99652.26;;;0.64;46.56
64139;BME280;50435;43.700;-79.318;2023-02-26T11:53:17;99642.71;;;0.19;46.53
64139;BME280;50435;43.700;-79.318;2023-02-26T11:55:51;99638.29;;;0.17;46.52
64139;BME280;50435;43.700;-79.318;2023-02-26T11:58:21;99639.75;;;0.73;46.68
64139;BME280;50435;43.700;-79.318;2023-02-26T12:00:52;99631.73;;;0.73;46.43
64139;BME280;50435;43.700;-79.318;2023-02-26T12:03:21;99627.95;;;0.49;46.41
64139;BME280;50435;43.700;-79.318;2023-02-26T12:05:50;99630.55;;;0.22;46.42
64139;BME280;50435;43.700;-79.318;2023-02-26T12:08:21;99623.45;;;0.21;46.56
64139;BME280;50435;43.700;-79.318;2023-02-26T12:10:59;99624.70;;;0.70;46.37
64139;BME280;50435;43.700;-79.318;2023-02-26T12:13:36;99617.75;;;0.34;46.27
64139;BME280;50435;43.700;-79.318;2023-02-26T12:16:14;99619.78;;;0.32;46.26
64139;BME280;50435;43.700;-79.318;2023-02-26T12:18:52;99614.32;;;0.87;46.21
64139;BME280;50435;43.700;-79.318;2023-02-26T12:21:38;99609.70;;;0.30;46.23
64139;BME280;50435;43.700;-79.318;2023-02-26T12:24:43;99611.07;;;0.73;46.49
64139;BME280;50435;43.700;-79.318;2023-02-26T12:27:21;99611.96;;;0.27;46.36
64139;BME280;50435;43.700;-79.318;2023-02-26T12:30:04;99617.19;;;0.30;46.35
64139;BME280;50435;43.700;-79.318;2023-02-26T12:32:43;99624.22;;;0.31;46.38
64139;BME280;50435;43.700;-79.318;2023-02-26T12:35:29;99625.81;;;0.29;46.31
64139;BME280;50435;43.700;-79.318;2023-02-26T12:38:09;99626.97;;;0.10;46.36
64139;BME280;50435;43.700;-79.318;2023-02-26T12:40:53;99620.46;;;0.35;46.36
64139;BME280;50435;43.700;-79.318;2023-02-26T12:43:32;99621.78;;;0.50;46.63
64139;BME280;50435;43.700;-79.318;2023-02-26T12:46:10;99622.24;;;0.28;46.51
64139;BME280;50435;43.700;-79.318;2023-02-26T12:49:02;99617.31;;;0.74;46.31
64139;BME280;50435;43.700;-79.318;2023-02-26T12:51:43;99621.00;;;0.30;46.56
64139;BME280;50435;43.700;-79.318;2023-02-26T12:54:34;99621.75;;;0.28;46.59
64139;BME280;50435;43.700;-79.318;2023-02-26T12:57:25;99628.33;;;0.30;46.59